createdAt,value
2022-11-24T00:01:07.102Z,3.58
2022-11-24T00:03:33.481Z,4.60
2022-11-24T00:06:07.583Z,4.18
2022-11-24T00:08:34.613Z,4.82
2022-11-24T00:11:04.834Z,4.80
2022-11-24T00:13:31.179Z,3.50
2022-11-24T00:16:03.950Z,4.43
2022-11-24T00:18:30.209Z,3.10
2022-11-24T00:20:56.515Z,3.33
2022-11-24T00:23:22.772Z,3.30
2022-11-24T00:25:49.081Z,3.70
2022-11-24T00:28:15.460Z,4.18
2022-11-24T00:30:41.858Z,2.65
2022-11-24T00:33:08.192Z,4.53
2022-11-24T00:35:34.458Z,3.50
2022-11-24T00:38:00.856Z,3.38
2022-11-24T00:40:32.084Z,2.95
2022-11-24T00:43:01.484Z,4.13
2022-11-24T00:45:27.795Z,3.25
2022-11-24T00:47:54.090Z,3.00
2022-11-24T00:50:21.287Z,3.00
2022-11-24T00:52:47.617Z,2.88
2022-11-24T00:55:13.924Z,3.35
2022-11-24T00:57:40.181Z,3.60
2022-11-24T01:00:06.860Z,3.70
2022-11-24T01:02:33.159Z,4.32
2022-11-24T01:04:59.493Z,3.70
2022-11-24T01:07:25.836Z,3.72
2022-11-24T01:09:52.204Z,5.47
2022-11-24T01:12:18.509Z,3.42
2022-11-24T01:14:44.799Z,3.17
2022-11-24T01:17:11.520Z,3.55
2022-11-24T01:19:37.827Z,3.88
2022-11-24T01:22:04.098Z,3.72
2022-11-24T01:24:30.445Z,3.50
2022-11-24T01:26:56.808Z,3.03
2022-11-24T01:29:23.140Z,3.22
2022-11-24T01:31:49.396Z,3.75
2022-11-24T01:34:15.742Z,3.95
2022-11-24T01:36:42.054Z,4.13
2022-11-24T01:39:08.557Z,3.65
2022-11-24T01:41:35.539Z,3.58
2022-11-24T01:44:19.570Z,3.63
2022-11-24T01:46:48.591Z,3.33
2022-11-24T01:49:19.610Z,3.63
2022-11-24T01:51:49.391Z,3.53
2022-11-24T01:54:18.322Z,2.60
2022-11-24T01:56:47.012Z,3.13
2022-11-24T01:59:14.514Z,3.25
2022-11-24T02:01:40.885Z,3.40
2022-11-24T02:04:10.690Z,2.97
2022-11-24T02:06:37.824Z,3.00
2022-11-24T02:09:11.726Z,4.05
2022-11-24T02:11:39.015Z,3.25
2022-11-24T02:14:07.906Z,3.75
2022-11-24T02:16:35.468Z,2.72
2022-11-24T02:19:03.303Z,2.60
2022-11-24T02:21:29.628Z,2.67
2022-11-24T02:24:02.108Z,2.60
2022-11-24T02:26:31.362Z,3.03
2022-11-24T02:28:57.820Z,2.60
2022-11-24T02:31:24.250Z,3.42
2022-11-24T02:33:51.124Z,2.50
2022-11-24T02:36:17.443Z,4.35
2022-11-24T02:38:43.768Z,2.85
2022-11-24T02:41:11.742Z,2.58
2022-11-24T02:43:41.749Z,2.83
2022-11-24T02:46:09.569Z,3.20
2022-11-24T02:48:35.943Z,2.83
2022-11-24T02:51:02.358Z,2.78
2022-11-24T02:53:28.758Z,3.00
2022-11-24T02:55:55.063Z,2.78
2022-11-24T02:58:21.420Z,2.90
2022-11-24T03:00:48.318Z,2.58
2022-11-24T03:03:14.741Z,3.30
2022-11-24T03:05:41.096Z,2.83
2022-11-24T03:08:07.394Z,2.22
2022-11-24T03:10:33.704Z,2.20
2022-11-24T03:13:00.140Z,1.95
2022-11-24T03:15:26.458Z,2.90
2022-11-24T03:17:54.545Z,2.42
2022-11-24T03:20:20.895Z,2.75
2022-11-24T03:22:47.245Z,2.60
2022-11-24T03:25:13.847Z,2.03
2022-11-24T03:27:40.421Z,2.38
2022-11-24T03:30:07.433Z,2.42
2022-11-24T03:32:33.768Z,4.43
2022-11-24T03:35:00.192Z,2.47
2022-11-24T03:37:26.607Z,2.40
2022-11-24T03:39:52.974Z,3.47
2022-11-24T03:42:19.244Z,2.42
2022-11-24T03:44:45.518Z,3.08
2022-11-24T03:47:12.823Z,2.22
2022-11-24T03:49:39.130Z,1.83
2022-11-24T03:52:08.268Z,2.85
2022-11-24T03:54:35.085Z,3.00
2022-11-24T03:57:01.542Z,2.50
2022-11-24T03:59:27.791Z,2.03
2022-11-24T04:01:54.121Z,2.05
2022-11-24T04:04:20.431Z,2.55
2022-11-24T04:06:46.736Z,2.38
2022-11-24T04:09:13.047Z,2.60
2022-11-24T04:11:57.999Z,2.40
2022-11-24T04:14:24.380Z,2.67
2022-11-24T04:16:50.690Z,3.55
2022-11-24T04:19:17.048Z,4.13
2022-11-24T04:21:43.306Z,3.40
2022-11-24T04:24:09.541Z,2.58
2022-11-24T04:26:35.880Z,2.40
2022-11-24T04:29:02.173Z,3.38
2022-11-24T04:31:28.531Z,2.92
2022-11-24T04:33:54.894Z,3.10
2022-11-24T04:36:21.159Z,2.45
2022-11-24T04:39:23.025Z,3.25
2022-11-24T04:41:33.827Z,2.55
2022-11-24T04:44:00.120Z,3.85
2022-11-24T04:46:26.415Z,2.85
2022-11-24T04:48:52.747Z,2.78
2022-11-24T04:51:19.150Z,2.20
2022-11-24T04:53:45.607Z,2.65
2022-11-24T04:56:11.933Z,3.55
2022-11-24T04:58:38.199Z,3.20
2022-11-24T05:01:06.664Z,2.90
2022-11-24T05:03:32.929Z,3.45
2022-11-24T05:05:59.611Z,2.90
2022-11-24T05:08:25.922Z,3.60
2022-11-24T05:10:52.162Z,2.67
2022-11-24T05:13:18.441Z,2.90
2022-11-24T05:15:44.838Z,3.58
2022-11-24T05:18:12.757Z,2.78
2022-11-24T05:20:39.202Z,2.28
2022-11-24T05:23:06.925Z,2.60
2022-11-24T05:25:34.268Z,2.25
2022-11-24T05:28:01.380Z,2.50
2022-11-24T05:30:28.172Z,1.98
2022-11-24T05:32:54.661Z,1.48
2022-11-24T05:35:21.609Z,1.60
2022-11-24T05:37:47.988Z,1.60
2022-11-24T05:40:14.312Z,1.60
2022-11-24T05:42:46.189Z,1.55
2022-11-24T05:45:14.580Z,1.83
2022-11-24T05:47:41.942Z,1.42
2022-11-24T05:50:09.794Z,0.75
2022-11-24T05:52:36.395Z,0.60
2022-11-24T05:55:02.815Z,0.75
2022-11-24T05:57:29.135Z,0.60
2022-11-24T05:59:55.427Z,0.52
2022-11-24T06:02:21.794Z,0.63
2022-11-24T06:04:48.152Z,0.90
2022-11-24T06:07:14.536Z,0.80
2022-11-24T06:09:41.712Z,0.70
2022-11-24T06:12:08.055Z,0.57
2022-11-24T06:14:34.913Z,1.00
2022-11-24T06:17:01.801Z,0.60
2022-11-24T06:19:28.074Z,0.90
2022-11-24T06:21:54.477Z,0.60
2022-11-24T06:24:21.114Z,0.77
2022-11-24T06:26:47.541Z,1.10
2022-11-24T06:29:13.876Z,0.77
2022-11-24T06:31:40.207Z,1.42
2022-11-24T06:34:07.400Z,1.45
2022-11-24T06:36:34.093Z,1.58
2022-11-24T06:39:04.088Z,1.25
2022-11-24T06:41:30.642Z,2.13
2022-11-24T06:43:57.095Z,1.20
2022-11-24T06:46:23.683Z,2.03
2022-11-24T06:48:53.137Z,1.40
2022-11-24T06:51:19.495Z,1.90
2022-11-24T06:53:45.884Z,2.28
2022-11-24T06:56:16.792Z,2.55
2022-11-24T06:58:46.532Z,1.98
2022-11-24T07:01:17.114Z,2.00
2022-11-24T07:03:43.774Z,2.10
2022-11-24T07:06:10.110Z,2.78
2022-11-24T07:08:36.427Z,3.03
2022-11-24T07:11:06.542Z,3.22
2022-11-24T07:13:32.808Z,3.80
2022-11-24T07:15:59.495Z,3.25
2022-11-24T07:18:25.818Z,3.17
2022-11-24T07:20:52.066Z,3.75
2022-11-24T07:23:18.335Z,3.83
2022-11-24T07:25:44.591Z,4.07
2022-11-24T07:28:10.937Z,3.70
2022-11-24T07:30:37.263Z,4.30
2022-11-24T07:33:03.921Z,4.75
2022-11-24T07:35:30.493Z,5.78
2022-11-24T07:37:57.485Z,5.82
2022-11-24T07:40:24.337Z,6.18
2022-11-24T07:42:50.633Z,5.50
2022-11-24T07:45:17.005Z,5.47
2022-11-24T07:47:43.429Z,5.93
2022-11-24T07:50:10.602Z,6.05
2022-11-24T07:52:37.573Z,7.05
2022-11-24T07:55:04.534Z,5.82
2022-11-24T07:57:30.869Z,6.30
2022-11-24T07:59:57.168Z,6.90
2022-11-24T08:02:23.969Z,5.88
2022-11-24T08:04:50.320Z,6.03
2022-11-24T08:07:16.747Z,5.72
2022-11-24T08:09:43.021Z,6.30
2022-11-24T08:12:09.331Z,6.07
2022-11-24T08:14:35.800Z,6.05
2022-11-24T08:17:02.348Z,5.60
2022-11-24T08:19:28.664Z,6.00
2022-11-24T08:21:54.965Z,6.75
2022-11-24T08:24:21.265Z,5.75
2022-11-24T08:26:47.570Z,5.55
2022-11-24T08:29:13.833Z,4.85
2022-11-24T08:31:40.195Z,5.18
2022-11-24T08:34:06.804Z,5.45
2022-11-24T08:36:33.351Z,5.38
2022-11-24T08:39:00.420Z,5.65
2022-11-24T08:41:27.349Z,5.72
2022-11-24T08:43:54.081Z,6.13
2022-11-24T08:46:20.568Z,5.30
2022-11-24T08:48:50.822Z,4.82
2022-11-24T08:51:19.094Z,5.50
2022-11-24T08:53:45.442Z,5.18
2022-11-24T08:56:13.014Z,5.55
2022-11-24T08:58:40.192Z,5.20
2022-11-24T09:01:07.425Z,4.60
2022-11-24T09:03:34.437Z,5.68
2022-11-24T09:06:01.395Z,4.45
2022-11-24T09:08:29.049Z,4.72
2022-11-24T09:10:59.066Z,5.40
2022-11-24T09:13:25.345Z,5.57
2022-11-24T09:15:51.557Z,3.97
2022-11-24T09:18:17.847Z,4.43
2022-11-24T09:20:44.142Z,4.25
2022-11-24T09:23:10.923Z,4.63
2022-11-24T09:25:37.463Z,3.88
2022-11-24T09:28:03.911Z,4.28
2022-11-24T09:30:30.346Z,3.90
2022-11-24T09:32:57.074Z,5.15
2022-11-24T09:35:24.435Z,3.75
2022-11-24T09:37:51.168Z,3.75
2022-11-24T09:40:17.706Z,3.42
2022-11-24T09:42:53.270Z,3.10
2022-11-24T09:46:03.999Z,3.05
2022-11-24T09:48:28.071Z,3.45
2022-11-24T09:50:57.566Z,3.58
2022-11-24T09:53:23.801Z,3.10
2022-11-24T09:55:51.331Z,4.22
2022-11-24T09:58:32.986Z,4.07
2022-11-24T10:00:59.457Z,2.30
2022-11-24T10:03:37.677Z,2.97
2022-11-24T10:06:10.262Z,2.72
2022-11-24T10:09:02.558Z,2.75
2022-11-24T10:11:36.435Z,2.78
2022-11-24T10:14:21.624Z,2.67
2022-11-24T10:16:56.495Z,3.33
2022-11-24T10:19:42.244Z,3.67
2022-11-24T10:22:12.077Z,2.80
2022-11-24T10:24:57.076Z,2.30
2022-11-24T10:27:28.498Z,2.37
2022-11-24T10:29:55.318Z,2.88
2022-11-24T10:32:21.550Z,2.30
2022-11-24T10:34:51.591Z,2.55
2022-11-24T10:37:28.443Z,2.55
2022-11-24T10:40:33.350Z,2.58
2022-11-24T10:43:00.386Z,2.25
2022-11-24T10:45:27.953Z,2.70
2022-11-24T10:47:54.274Z,4.53
2022-11-24T10:50:22.805Z,2.35
2022-11-24T10:52:55.157Z,2.42
2022-11-24T10:55:21.797Z,4.03
2022-11-24T10:57:48.180Z,2.50
2022-11-24T11:00:20.735Z,4.18
2022-11-24T11:02:51.841Z,2.20
2022-11-24T11:05:33.621Z,2.42
2022-11-24T11:08:10.429Z,2.92
2022-11-24T11:10:37.085Z,3.20
2022-11-24T11:13:21.956Z,2.30
2022-11-24T11:15:48.476Z,3.08
2022-11-24T11:18:17.063Z,2.95
2022-11-24T11:20:51.041Z,3.00
2022-11-24T11:23:22.316Z,2.40
2022-11-24T11:25:48.635Z,2.58
2022-11-24T11:28:21.952Z,3.28
2022-11-24T11:31:16.465Z,5.18
2022-11-24T11:34:03.300Z,2.85
2022-11-24T11:36:31.758Z,2.90
2022-11-24T11:38:58.531Z,2.53
2022-11-24T11:41:36.504Z,2.67
2022-11-24T11:44:22.993Z,3.65
2022-11-24T11:46:49.428Z,3.35
2022-11-24T11:49:15.844Z,2.35
2022-11-24T11:51:56.223Z,2.75
2022-11-24T11:54:22.568Z,3.22
2022-11-24T11:56:50.146Z,3.88
2022-11-24T11:59:42.148Z,3.20
2022-11-24T12:02:28.041Z,3.28
2022-11-24T12:07:20.682Z,3.38
2022-11-24T12:09:49.703Z,2.67
2022-11-24T12:12:15.964Z,3.15
2022-11-24T12:15:03.461Z,2.67
2022-11-24T12:17:34.735Z,3.83
2022-11-24T12:20:08.552Z,3.25
2022-11-24T12:23:01.101Z,3.60
2022-11-24T12:25:33.133Z,3.03
2022-11-24T12:28:23.750Z,2.88
2022-11-24T12:30:58.799Z,2.28
2022-11-24T12:33:25.059Z,2.97
2022-11-24T12:36:10.286Z,3.33
2022-11-24T12:38:54.667Z,3.05
2022-11-24T12:44:25.130Z,3.78
2022-11-24T12:46:51.463Z,3.40
2022-11-24T12:49:29.773Z,2.22
2022-11-24T12:51:59.677Z,3.08
2022-11-24T12:54:26.940Z,2.88
2022-11-24T12:56:56.737Z,3.05
2022-11-24T12:59:45.127Z,3.35
2022-11-24T13:02:34.358Z,3.50
2022-11-24T13:05:00.733Z,3.55
2022-11-24T13:07:35.604Z,3.13
2022-11-24T13:10:30.143Z,3.08
2022-11-24T13:13:14.670Z,2.60
2022-11-24T13:18:47.708Z,2.90
2022-11-24T13:21:45.406Z,3.50
2022-11-24T13:24:18.113Z,2.78
2022-11-24T13:26:48.264Z,3.10
2022-11-24T13:29:33.028Z,2.40
2022-11-24T13:32:02.274Z,3.47
2022-11-24T13:34:41.178Z,2.53
2022-11-24T13:37:31.192Z,3.28
2022-11-24T13:40:03.767Z,2.58
2022-11-24T13:42:43.861Z,3.17
2022-11-24T13:45:30.989Z,4.03
2022-11-24T13:47:57.316Z,2.70
2022-11-24T13:50:37.265Z,3.50
2022-11-24T13:53:08.980Z,3.53
2022-11-24T13:55:38.804Z,2.20
2022-11-24T13:58:13.968Z,2.33
2022-11-24T14:00:59.047Z,3.42
2022-11-24T14:03:34.572Z,2.90
2022-11-24T14:08:29.348Z,2.85
2022-11-24T14:10:57.061Z,2.85
2022-11-24T14:13:23.417Z,3.15
2022-11-24T14:16:04.524Z,3.00
2022-11-24T14:18:34.406Z,3.88
2022-11-24T14:21:19.401Z,2.85
2022-11-24T14:24:05.908Z,2.57
2022-11-24T14:26:32.508Z,3.92
2022-11-24T14:29:04.733Z,3.50
2022-11-24T14:31:31.132Z,3.33
2022-11-24T14:34:12.548Z,3.78
2022-11-24T14:36:39.333Z,2.58
2022-11-24T14:39:06.053Z,2.97
2022-11-24T14:41:33.362Z,3.17
2022-11-24T14:44:09.040Z,2.92
2022-11-24T14:46:36.226Z,3.00
2022-11-24T14:49:03.015Z,3.17
2022-11-24T14:51:32.233Z,2.85
2022-11-24T14:54:00.930Z,2.60
2022-11-24T14:56:32.673Z,3.13
2022-11-24T14:58:59.277Z,2.92
2022-11-24T15:01:29.164Z,3.47
2022-11-24T15:04:26.446Z,3.58
2022-11-24T15:07:11.275Z,4.00
2022-11-24T15:09:43.230Z,3.83
2022-11-24T15:12:22.683Z,4.13
2022-11-24T15:14:51.298Z,2.97
2022-11-24T15:17:23.077Z,3.25
2022-11-24T15:19:51.445Z,2.63
2022-11-24T15:22:38.912Z,3.00
2022-11-24T15:25:23.795Z,2.72
2022-11-24T15:27:50.499Z,3.63
2022-11-24T15:30:16.731Z,2.80
2022-11-24T15:33:09.484Z,3.17
2022-11-24T15:35:35.745Z,2.80
2022-11-24T15:38:02.303Z,2.50
2022-11-24T15:40:28.605Z,3.90
2022-11-24T15:42:55.931Z,2.95
2022-11-24T15:45:23.771Z,3.90
2022-11-24T15:47:50.057Z,2.60
2022-11-24T15:50:16.528Z,3.80
2022-11-24T15:52:44.346Z,3.50
2022-11-24T15:55:16.940Z,3.63
2022-11-24T15:57:43.395Z,2.55
2022-11-24T16:00:13.978Z,3.20
2022-11-24T16:02:40.283Z,3.45
2022-11-24T16:05:06.923Z,3.97
2022-11-24T16:07:33.323Z,3.70
2022-11-24T16:09:59.650Z,3.33
2022-11-24T16:12:25.975Z,4.00
2022-11-24T16:14:52.285Z,2.95
2022-11-24T16:17:18.745Z,2.85
2022-11-24T16:19:45.239Z,3.28
2022-11-24T16:22:11.571Z,3.70
2022-11-24T16:24:37.873Z,3.67
2022-11-24T16:27:04.122Z,3.92
2022-11-24T16:29:32.887Z,3.55
2022-11-24T16:32:03.289Z,3.50
2022-11-24T16:34:29.670Z,3.83
2022-11-24T16:36:56.247Z,3.67
2022-11-24T16:39:22.559Z,3.85
2022-11-24T16:41:48.884Z,2.95
2022-11-24T16:44:15.186Z,4.05
2022-11-24T16:46:43.368Z,3.55
2022-11-24T16:49:09.626Z,3.72
2022-11-24T16:51:35.864Z,2.95
2022-11-24T16:54:02.396Z,3.47
2022-11-24T16:56:29.205Z,3.63
2022-11-24T16:58:55.585Z,3.38
2022-11-24T17:01:22.039Z,3.70
2022-11-24T17:03:48.396Z,3.42
2022-11-24T17:06:16.148Z,4.07
2022-11-24T17:08:43.286Z,3.70
2022-11-24T17:11:11.133Z,4.22
2022-11-24T17:13:37.734Z,3.78
2022-11-24T17:16:07.802Z,3.60
2022-11-24T17:18:34.423Z,3.80
2022-11-24T17:21:07.637Z,4.25
2022-11-24T17:23:35.643Z,3.95
2022-11-24T17:26:02.667Z,3.90
2022-11-24T17:28:29.152Z,3.50
2022-11-24T17:30:55.422Z,3.45
2022-11-24T17:33:21.982Z,4.00
2022-11-24T17:35:48.278Z,4.20
2022-11-24T17:38:14.566Z,3.90
2022-11-24T17:40:45.783Z,3.70
2022-11-24T17:43:12.402Z,4.68
2022-11-24T17:45:38.708Z,3.30
2022-11-24T17:48:05.175Z,4.57
2022-11-24T17:50:31.513Z,4.60
2022-11-24T17:52:57.740Z,3.60
2022-11-24T17:55:24.034Z,3.22
2022-11-24T17:57:50.563Z,5.05
2022-11-24T18:00:17.049Z,3.65
2022-11-24T18:02:43.464Z,3.67
2022-11-24T18:05:09.790Z,4.25
2022-11-24T18:07:36.909Z,4.53
2022-11-24T18:10:05.593Z,4.43
2022-11-24T18:12:32.218Z,4.40
2022-11-24T18:14:58.555Z,4.15
2022-11-24T18:17:25.132Z,5.50
2022-11-24T18:19:51.488Z,4.95
2022-11-24T18:22:21.020Z,4.55
2022-11-24T18:24:53.530Z,4.90
2022-11-24T18:27:21.520Z,4.05
2022-11-24T18:29:52.010Z,3.90
2022-11-24T18:32:21.182Z,2.97
2022-11-24T18:34:47.460Z,3.83
2022-11-24T18:37:16.109Z,4.72
2022-11-24T18:39:42.400Z,4.82
2022-11-24T18:42:09.520Z,4.32
2022-11-24T18:44:38.620Z,4.53
2022-11-24T18:47:04.975Z,3.72
2022-11-24T18:49:31.920Z,3.28
2022-11-24T18:51:58.822Z,3.03
2022-11-24T18:54:27.234Z,3.78
2022-11-24T18:56:55.077Z,3.83
2022-11-24T18:59:24.595Z,3.55
2022-11-24T19:01:52.339Z,3.97
2022-11-24T19:04:18.711Z,4.45
2022-11-24T19:06:45.136Z,3.70
2022-11-24T19:09:14.742Z,2.90
2022-11-24T19:11:42.706Z,3.55
2022-11-24T19:14:11.325Z,3.03
2022-11-24T19:16:37.764Z,3.08
2022-11-24T19:19:04.115Z,3.58
2022-11-24T19:21:31.283Z,3.85
2022-11-24T19:24:02.861Z,3.25
2022-11-24T19:26:31.020Z,4.50
2022-11-24T19:28:57.376Z,3.55
2022-11-24T19:31:23.735Z,4.18
2022-11-24T19:33:52.770Z,3.40
2022-11-24T19:36:19.948Z,3.58
2022-11-24T19:38:53.760Z,2.60
2022-11-24T19:41:20.817Z,3.22
2022-11-24T19:43:47.951Z,2.80
2022-11-24T19:46:15.886Z,3.85
2022-11-24T19:48:43.562Z,3.20
2022-11-24T19:51:14.625Z,3.10
2022-11-24T19:53:41.359Z,3.17
2022-11-24T19:56:08.917Z,3.80
2022-11-24T19:58:35.536Z,2.92
2022-11-24T20:01:13.825Z,4.13
2022-11-24T20:03:41.313Z,4.45
2022-11-24T20:06:08.431Z,3.20
2022-11-24T20:08:35.591Z,4.88
2022-11-24T20:11:05.449Z,3.22
2022-11-24T20:13:32.148Z,3.60
2022-11-24T20:16:12.527Z,3.35
2022-11-24T20:18:42.124Z,3.47
2022-11-24T20:21:10.164Z,3.30
2022-11-24T20:23:36.456Z,3.45
2022-11-24T20:26:10.094Z,4.32
2022-11-24T20:28:36.498Z,3.83
2022-11-24T20:31:03.421Z,3.17
2022-11-24T20:33:29.768Z,4.05
2022-11-24T20:36:00.743Z,3.17
2022-11-24T20:38:28.443Z,3.10
2022-11-24T20:41:03.457Z,3.55
2022-11-24T20:43:32.449Z,3.28
2022-11-24T20:46:02.745Z,3.10
2022-11-24T20:48:29.303Z,3.47
2022-11-24T20:50:55.605Z,3.30
2022-11-24T20:53:21.946Z,3.13
2022-11-24T20:55:48.300Z,3.15
2022-11-24T20:58:14.586Z,3.05
2022-11-24T21:00:41.285Z,3.65
2022-11-24T21:03:07.597Z,3.05
2022-11-24T21:05:33.922Z,3.45
2022-11-24T21:08:00.243Z,3.17
2022-11-24T21:10:26.569Z,3.17
2022-11-24T21:12:52.880Z,2.85
2022-11-24T21:15:19.134Z,3.20
2022-11-24T21:17:45.431Z,2.63
2022-11-24T21:20:12.692Z,2.95
2022-11-24T21:22:40.052Z,2.85
2022-11-24T21:25:06.581Z,3.38
2022-11-24T21:27:32.941Z,3.45
2022-11-24T21:29:59.205Z,2.83
2022-11-24T21:32:26.484Z,3.00
2022-11-24T21:34:53.478Z,3.10
2022-11-24T21:37:19.776Z,3.72
2022-11-24T21:39:46.298Z,2.90
2022-11-24T21:42:12.645Z,2.30
2022-11-24T21:44:38.878Z,2.60
2022-11-24T21:47:05.172Z,3.55
2022-11-24T21:49:31.390Z,3.10
2022-11-24T21:51:57.756Z,3.22
2022-11-24T21:54:24.293Z,2.90
2022-11-24T21:56:50.620Z,2.85
2022-11-24T21:59:16.959Z,3.10
2022-11-24T22:01:43.655Z,2.95
2022-11-24T22:04:09.962Z,3.47
2022-11-24T22:06:36.587Z,3.08
2022-11-24T22:09:02.914Z,3.13
2022-11-24T22:11:29.170Z,3.72
2022-11-24T22:13:55.558Z,2.75
2022-11-24T22:16:22.930Z,3.15
2022-11-24T22:18:49.573Z,2.67
2022-11-24T22:21:17.102Z,3.47
2022-11-24T22:23:43.827Z,2.83
2022-11-24T22:26:15.255Z,3.78
2022-11-24T22:28:42.556Z,3.25
2022-11-24T22:31:10.204Z,3.03
2022-11-24T22:33:36.515Z,3.70
2022-11-24T22:36:03.223Z,4.05
2022-11-24T22:38:30.081Z,3.03
2022-11-24T22:41:03.754Z,3.20
2022-11-24T22:43:31.650Z,3.17
2022-11-24T22:45:58.157Z,3.88
2022-11-24T22:48:24.491Z,3.58
2022-11-24T22:50:50.907Z,3.15
2022-11-24T22:53:17.155Z,3.97
2022-11-24T22:55:43.716Z,3.10
2022-11-24T22:58:10.074Z,2.97
2022-11-24T23:00:36.659Z,3.53
2022-11-24T23:03:02.954Z,3.35
2022-11-24T23:05:29.325Z,3.65
2022-11-24T23:07:55.736Z,3.03
2022-11-24T23:10:22.276Z,3.60
2022-11-24T23:12:49.938Z,3.92
2022-11-24T23:15:16.177Z,2.90
2022-11-24T23:17:42.687Z,3.00
2022-11-24T23:20:09.359Z,4.10
2022-11-24T23:22:35.665Z,3.25
2022-11-24T23:25:02.088Z,2.65
2022-11-24T23:27:28.435Z,3.97
2022-11-24T23:29:54.766Z,3.13
2022-11-24T23:32:21.103Z,4.40
2022-11-24T23:34:47.394Z,3.92
2022-11-24T23:37:13.724Z,3.85
2022-11-24T23:39:40.041Z,4.03
2022-11-24T23:42:06.331Z,3.17
2022-11-24T23:44:32.755Z,3.55
2022-11-24T23:46:59.374Z,3.35
2022-11-24T23:49:25.638Z,4.15
2022-11-24T23:51:51.916Z,3.17
2022-11-24T23:54:18.187Z,3.45
2022-11-24T23:56:45.065Z,3.53
2022-11-24T23:59:12.586Z,3.63
